Toledo, OH

11:52 AM EDT on October 24, 2014 (GMT -0400)
University of Toledo | Change Station
CLOSE
Current Station
Personal Weather Station
Location: Toledo, OH
Elevation: 597 ft
Nearby Weather Stations

Elev 597 ft 41.66 °N, 83.62 °W | Updated 8 minutes ago

Clear
Clear
58.2 °F
Feels Like 58.2 °F
N
0.7
Wind Variable Wind from WSW
Gusts 4.0 mph

Today
High -- | Low -- °F
--% Chance of Precip.
Yesterday
High -- | Low -- °F
Precip. -- in
7:56 AM 6:39 PM
New Moon, 1% visible
Pressure 30.12 in
Visibility 7.0 miles
Clouds Clear
Dew Point 47 °F
Humidity 66%
Rainfall -999.00 in
Snow Depth Not available.
UV 3 out of 12
Pollen .80 out of 12
Air Quality Not available.
Flu Activity Sporadic
METAR KTDZ 241453Z AUTO 21006KT 7SM CLR 11/06 A3011 RMK AO2 SLP197 T01110056 50001 TSNO

More Conditions Fewer Conditions

Pressure 30.12 in
Visibility 7.0 miles
Clouds Clear
Dew Point 47 °F
Humidity 66%
Rainfall -999.00 in
Snow Depth Not available.
UV 3 out of 12
Pollen .80 out of 12
Air Quality Not available.
Flu Activity Sporadic
METAR KTDZ 241453Z AUTO 21006KT 7SM CLR 11/06 A3011 RMK AO2 SLP197 T01110056 50001 TSNO

More Conditions Fewer Conditions

10-Day Weather Forecast

Almanac

Astronomy

Oct. 24, 2014 Rise Set
Actual Time 7:56 AM EDT 6:39 PM EDT
Civil Twilight 7:28 AM EDT 7:07 PM EDT
Nautical Twilight 6:55 AM EDT 7:40 PM EDT
Astronomical Twilight 6:23 AM EDT 8:12 PM EDT
Moon 8:35 AM EDT 7:18 PM EDT
Length of Visible Light 11h 39m
Length of Day
10h 42m
Tomorrow will be 2m 35s shorter.
New Moon, 1% of the Moon is Illuminated
Today
New Moon
Oct 30
First Quarter
Nov 6
Full
Nov 14
Last Quarter
Nov 22
New

Today's Extremes

State Highs State Lows

Community

WunderPhotos

Upload Photos

1,764,590 photos uploaded!

WunderBlogs® & News

Nearby

Snow Depth

Station Depth Elevation
No new snow has been reported.

Earthquake Activity

City Distance Mag. Time & Date
No recent earthquake activity has been reported nearby.
Minimum magnitude displayed is 2.5.

Coastal Water Temperatures

Place Temperature
Marblehead, OH 52.0 °F

Nearby Weather Stations